createdAt,value
2022-08-17T00:01:06.854Z,22.92
2022-08-17T00:03:46.779Z,22.08
2022-08-17T00:06:24.784Z,22.77
2022-08-17T00:09:04.782Z,22.67
2022-08-17T00:11:34.810Z,22.13
2022-08-17T00:14:16.795Z,18.45
2022-08-17T00:16:56.314Z,17.38
2022-08-17T00:19:32.929Z,21.45
2022-08-17T00:22:35.052Z,19.90
2022-08-17T00:25:00.786Z,19.38
2022-08-17T00:27:33.777Z,18.33
2022-08-17T00:30:06.803Z,21.35
2022-08-17T00:33:13.797Z,20.52
2022-08-17T00:35:44.400Z,23.87
2022-08-17T00:38:18.784Z,21.30
2022-08-17T00:40:59.280Z,21.77
2022-08-17T00:43:28.023Z,21.52
2022-08-17T00:46:00.778Z,22.25
2022-08-17T00:48:34.772Z,22.10
2022-08-17T00:51:55.824Z,21.52
2022-08-17T00:54:25.467Z,21.60
2022-08-17T00:57:01.979Z,21.95
2022-08-17T00:59:32.282Z,20.90
2022-08-17T01:02:06.762Z,21.87
2022-08-17T01:04:33.515Z,22.17
2022-08-17T01:07:08.770Z,23.15
2022-08-17T01:09:42.796Z,21.73
2022-08-17T01:12:16.780Z,22.20
2022-08-17T01:14:49.943Z,23.17
2022-08-17T01:17:16.478Z,23.65
2022-08-17T01:19:50.781Z,22.55
2022-08-17T01:22:20.017Z,18.52
2022-08-17T01:25:00.777Z,18.88
2022-08-17T01:27:34.817Z,17.57
2022-08-17T01:30:57.284Z,18.13
2022-08-17T01:33:13.023Z,17.20
2022-08-17T01:35:46.770Z,16.60
2022-08-17T01:38:13.415Z,18.52
2022-08-17T01:40:57.442Z,18.53
2022-08-17T01:43:30.080Z,17.95
2022-08-17T01:46:03.754Z,18.95
2022-08-17T01:48:36.539Z,19.17
2022-08-17T01:51:12.769Z,19.20
2022-08-17T01:53:44.231Z,18.67
2022-08-17T01:56:20.815Z,19.05
2022-08-17T01:58:47.487Z,21.15
2022-08-17T02:01:23.844Z,21.70
2022-08-17T02:03:53.397Z,22.33
2022-08-17T02:06:44.981Z,19.93
2022-08-17T02:09:23.238Z,20.30
2022-08-17T02:11:52.804Z,19.05
2022-08-17T02:14:26.771Z,18.48
2022-08-17T02:16:53.767Z,18.35
2022-08-17T02:19:26.777Z,19.37
2022-08-17T02:22:00.747Z,17.42
2022-08-17T02:25:00.552Z,18.33
2022-08-17T02:27:32.748Z,16.63
2022-08-17T02:30:05.765Z,16.40
2022-08-17T02:32:53.001Z,16.97
2022-08-17T02:35:27.784Z,15.85
2022-08-17T02:38:00.765Z,15.32
2022-08-17T02:40:35.703Z,17.55
2022-08-17T02:43:11.763Z,16.40
2022-08-17T02:45:44.752Z,16.03
2022-08-17T02:48:11.655Z,15.90
2022-08-17T02:50:44.788Z,16.40
2022-08-17T02:53:18.751Z,16.10
2022-08-17T02:55:45.378Z,16.60
2022-08-17T02:58:34.472Z,16.20
2022-08-17T03:01:12.860Z,15.60
2022-08-17T03:03:46.809Z,15.85
2022-08-17T03:06:20.768Z,16.60
2022-08-17T03:08:53.760Z,15.43
2022-08-17T03:11:26.761Z,15.20
2022-08-17T03:13:53.201Z,14.68
2022-08-17T03:16:27.796Z,13.93
2022-08-17T03:18:54.986Z,13.80
2022-08-17T03:21:28.767Z,13.02
2022-08-17T03:24:01.757Z,14.70
2022-08-17T03:26:42.749Z,13.98
2022-08-17T03:29:18.984Z,14.70
2022-08-17T03:31:54.756Z,15.77
2022-08-17T03:34:27.765Z,15.70
2022-08-17T03:37:00.735Z,14.63
2022-08-17T03:39:34.781Z,15.05
2022-08-17T03:42:31.377Z,15.32
2022-08-17T03:45:06.735Z,14.50
2022-08-17T03:47:51.699Z,13.65
2022-08-17T03:50:44.760Z,13.13
2022-08-17T03:53:33.722Z,13.05
2022-08-17T03:56:30.768Z,12.63
2022-08-17T03:58:57.136Z,11.52
2022-08-17T04:01:23.766Z,10.80
2022-08-17T04:03:56.749Z,10.50
2022-08-17T04:06:30.781Z,8.57
2022-08-17T04:08:57.198Z,9.77
2022-08-17T04:11:30.747Z,9.45
2022-08-17T04:13:57.264Z,8.40
2022-08-17T04:16:33.525Z,8.30
2022-08-17T04:19:06.742Z,8.70
2022-08-17T04:21:40.755Z,9.23
2022-08-17T04:24:14.812Z,9.73
2022-08-17T04:26:53.826Z,9.68
2022-08-17T04:29:55.098Z,10.23
2022-08-17T04:32:24.857Z,9.77
2022-08-17T04:35:13.758Z,8.13
2022-08-17T04:37:40.222Z,9.82
2022-08-17T04:40:32.769Z,9.68
2022-08-17T04:43:07.763Z,9.83
2022-08-17T04:45:55.251Z,10.50
2022-08-17T04:48:35.402Z,11.10
2022-08-17T04:51:10.737Z,10.95
2022-08-17T04:53:38.890Z,12.07
2022-08-17T04:56:17.059Z,13.23
2022-08-17T04:58:48.132Z,12.20
2022-08-17T05:01:24.543Z,12.95
2022-08-17T05:03:59.766Z,12.35
2022-08-17T05:06:29.747Z,12.35
2022-08-17T05:08:57.817Z,12.47
2022-08-17T05:11:32.768Z,12.68
2022-08-17T05:13:59.657Z,12.02
2022-08-17T05:16:33.729Z,11.43
2022-08-17T05:19:00.208Z,12.60
2022-08-17T05:21:34.747Z,11.47
2022-08-17T05:24:01.188Z,11.57
2022-08-17T05:26:32.462Z,11.23
2022-08-17T05:29:10.746Z,10.88
2022-08-17T05:31:44.978Z,9.05
2022-08-17T05:34:17.729Z,9.37
2022-08-17T05:36:44.764Z,7.97
2022-08-17T05:39:22.772Z,7.88
2022-08-17T05:41:49.209Z,8.45
2022-08-17T05:44:16.502Z,6.97
2022-08-17T05:46:56.756Z,7.00
2022-08-17T05:49:27.883Z,6.70
2022-08-17T05:52:20.250Z,6.10
2022-08-17T05:55:23.731Z,5.43
2022-08-17T05:58:14.983Z,5.60
2022-08-17T06:00:57.392Z,5.67
2022-08-17T06:03:45.749Z,5.30
2022-08-17T06:06:44.744Z,5.38
2022-08-17T06:09:34.735Z,5.72
2022-08-17T06:12:28.756Z,6.03
2022-08-17T06:15:02.260Z,6.27
2022-08-17T06:17:44.745Z,5.85
2022-08-17T06:20:22.807Z,7.07
2022-08-17T06:23:14.004Z,6.65
2022-08-17T06:25:50.890Z,6.70
2022-08-17T06:28:37.032Z,6.67
2022-08-17T06:31:15.495Z,6.22
2022-08-17T06:33:53.736Z,6.80
2022-08-17T06:36:48.720Z,7.15
2022-08-17T06:39:46.758Z,7.72
2022-08-17T06:43:02.454Z,7.53
2022-08-17T06:45:40.730Z,7.35
2022-08-17T06:48:21.722Z,7.78
2022-08-17T06:51:18.744Z,8.77
2022-08-17T06:54:06.423Z,8.68
2022-08-17T06:56:55.438Z,8.30
2022-08-17T06:59:54.799Z,9.48
2022-08-17T07:02:56.867Z,8.93
2022-08-17T07:05:40.727Z,9.38
2022-08-17T07:08:18.520Z,10.07
2022-08-17T07:11:04.751Z,10.07
2022-08-17T07:13:37.379Z,10.88
2022-08-17T07:16:28.766Z,10.35
2022-08-17T07:18:57.200Z,10.80
2022-08-17T07:21:44.738Z,10.68
2022-08-17T07:24:26.234Z,11.43
2022-08-17T07:27:28.709Z,11.70
2022-08-17T07:30:16.743Z,12.65
2022-08-17T07:32:45.260Z,10.85
2022-08-17T07:35:15.331Z,10.90
2022-08-17T07:37:52.716Z,11.20
2022-08-17T07:40:34.786Z,12.05
2022-08-17T07:43:23.067Z,11.98
2022-08-17T07:46:25.714Z,12.35
2022-08-17T07:49:01.748Z,13.13
2022-08-17T07:51:31.511Z,12.47
2022-08-17T07:54:33.730Z,13.52
2022-08-17T07:57:29.408Z,13.18
2022-08-17T08:00:08.713Z,13.32
2022-08-17T08:02:52.737Z,14.13
2022-08-17T08:05:49.862Z,14.07
2022-08-17T08:08:39.851Z,12.98
2022-08-17T08:11:10.139Z,13.10
2022-08-17T08:13:52.809Z,12.60
2022-08-17T08:16:29.645Z,11.13
2022-08-17T08:19:06.721Z,9.47
2022-08-17T08:21:50.713Z,8.48
2022-08-17T08:25:08.732Z,8.10
2022-08-17T08:28:11.780Z,7.07
2022-08-17T08:30:53.706Z,7.03
2022-08-17T08:33:40.908Z,7.17
2022-08-17T08:37:12.982Z,7.13
2022-08-17T08:39:50.770Z,7.10
2022-08-17T08:42:27.324Z,6.32
2022-08-17T08:45:22.713Z,5.70
2022-08-17T08:48:22.911Z,6.87
2022-08-17T08:51:12.712Z,6.75
2022-08-17T08:53:55.396Z,7.22
2022-08-17T08:56:37.708Z,6.50
2022-08-17T08:59:10.690Z,6.97
2022-08-17T09:02:11.798Z,6.43
2022-08-17T09:05:13.931Z,6.20
2022-08-17T09:07:48.780Z,5.78
2022-08-17T09:10:27.321Z,6.28
2022-08-17T09:13:14.713Z,5.95
2022-08-17T09:15:46.715Z,5.80
2022-08-17T09:18:59.924Z,6.65
2022-08-17T09:21:48.765Z,7.95
2022-08-17T09:24:37.112Z,7.28
2022-08-17T09:27:28.711Z,7.03
2022-08-17T09:30:07.828Z,7.70
2022-08-17T09:32:50.735Z,8.25
2022-08-17T09:35:36.734Z,8.20
2022-08-17T09:38:22.300Z,8.10
2022-08-17T09:41:04.720Z,8.10
2022-08-17T09:43:46.705Z,7.80
2022-08-17T09:46:34.715Z,8.10
2022-08-17T09:49:25.397Z,8.68
2022-08-17T09:51:58.465Z,8.13
2022-08-17T09:54:39.701Z,8.30
2022-08-17T09:57:38.785Z,7.70
2022-08-17T10:00:18.769Z,8.63
2022-08-17T10:02:45.309Z,8.45
2022-08-17T10:05:43.706Z,9.25
2022-08-17T10:08:24.261Z,9.15
2022-08-17T10:11:19.725Z,9.37
2022-08-17T10:13:56.010Z,8.18
2022-08-17T10:16:44.693Z,7.75
2022-08-17T10:19:35.605Z,8.20
2022-08-17T10:22:37.914Z,6.72
2022-08-17T10:25:37.614Z,7.07
2022-08-17T10:28:25.808Z,7.05
2022-08-17T10:34:38.662Z,6.95
2022-08-17T10:37:19.810Z,7.35
2022-08-17T10:40:14.953Z,7.73
2022-08-17T10:42:59.174Z,7.65
2022-08-17T10:46:09.417Z,8.80
2022-08-17T10:49:16.619Z,8.30
2022-08-17T10:51:54.691Z,8.10
2022-08-17T10:54:24.038Z,8.13
2022-08-17T10:57:01.734Z,9.35
2022-08-17T10:59:43.743Z,9.43
2022-08-17T11:02:38.692Z,8.57
2022-08-17T11:05:23.627Z,10.45
2022-08-17T11:08:04.687Z,9.77
2022-08-17T11:10:51.978Z,11.18
2022-08-17T11:13:43.103Z,10.32
2022-08-17T11:16:41.763Z,10.73
2022-08-17T11:19:39.713Z,11.10
2022-08-17T11:22:33.609Z,10.13
2022-08-17T11:25:25.694Z,11.40
2022-08-17T11:28:40.680Z,11.85
2022-08-17T11:31:38.281Z,11.63
2022-08-17T11:34:35.169Z,12.77
2022-08-17T11:37:02.022Z,13.63
2022-08-17T11:40:12.938Z,14.00
2022-08-17T11:42:51.772Z,13.95
2022-08-17T11:45:43.755Z,16.20
2022-08-17T11:48:44.711Z,16.35
2022-08-17T11:51:35.669Z,15.27
2022-08-17T11:54:32.146Z,16.40
2022-08-17T11:57:27.734Z,16.52
2022-08-17T11:59:58.586Z,17.63
2022-08-17T12:02:37.698Z,17.17
2022-08-17T12:05:28.697Z,16.90
2022-08-17T12:08:33.480Z,17.90
2022-08-17T12:11:57.833Z,17.25
2022-08-17T12:14:45.445Z,17.27
2022-08-17T12:17:40.838Z,16.50
2022-08-17T12:20:56.780Z,16.47
2022-08-17T12:23:40.625Z,17.40
2022-08-17T12:26:28.675Z,15.98
2022-08-17T12:29:00.008Z,17.42
2022-08-17T12:31:44.686Z,17.00
2022-08-17T12:34:34.713Z,18.00
2022-08-17T12:37:05.757Z,16.83
2022-08-17T12:39:38.746Z,17.92
2022-08-17T12:42:28.717Z,18.02
2022-08-17T12:44:55.610Z,16.92
2022-08-17T12:47:29.445Z,17.50
2022-08-17T12:50:29.206Z,17.80
2022-08-17T12:53:02.674Z,17.85
2022-08-17T12:55:35.047Z,18.95
2022-08-17T12:58:13.606Z,18.27
2022-08-17T13:00:48.767Z,17.57
2022-08-17T13:03:25.691Z,18.63
2022-08-17T13:05:52.211Z,17.65
2022-08-17T13:08:48.686Z,18.15
2022-08-17T13:11:16.120Z,18.65
2022-08-17T13:13:52.726Z,18.27
2022-08-17T13:19:39.869Z,17.95
2022-08-17T13:22:18.694Z,19.05
2022-08-17T13:25:04.678Z,20.15
2022-08-17T13:27:32.855Z,20.33
2022-08-17T13:30:18.694Z,20.92
2022-08-17T13:32:55.898Z,18.70
2022-08-17T13:35:44.136Z,20.33
2022-08-17T13:38:42.681Z,18.95
2022-08-17T13:41:36.687Z,19.57
2022-08-17T13:44:39.676Z,19.33
2022-08-17T13:47:16.565Z,18.65
2022-08-17T13:49:50.711Z,20.05
2022-08-17T13:52:50.071Z,19.25
2022-08-17T13:55:28.691Z,20.03
2022-08-17T13:58:07.180Z,18.67
2022-08-17T14:00:42.683Z,19.88
2022-08-17T14:03:16.684Z,20.13
2022-08-17T14:05:43.238Z,19.80
2022-08-17T14:08:20.743Z,20.60
2022-08-17T14:10:57.109Z,19.83
2022-08-17T14:13:30.696Z,18.85
2022-08-17T14:15:57.306Z,19.50
2022-08-17T14:18:55.541Z,19.55
2022-08-17T14:21:23.697Z,19.43
2022-08-17T14:26:52.720Z,19.90
2022-08-17T14:29:27.685Z,20.50
2022-08-17T14:31:55.367Z,20.52
2022-08-17T14:34:30.691Z,20.23
2022-08-17T14:36:57.086Z,18.92
2022-08-17T14:39:29.731Z,19.02
2022-08-17T14:42:04.698Z,19.63
2022-08-17T14:44:31.271Z,19.50
2022-08-17T14:46:57.731Z,19.40
2022-08-17T14:49:32.712Z,19.63
2022-08-17T14:52:06.676Z,18.77
2022-08-17T14:54:45.158Z,19.17
2022-08-17T14:57:33.743Z,19.83
2022-08-17T15:00:06.671Z,20.70
2022-08-17T15:02:44.069Z,19.08
2022-08-17T15:05:16.690Z,20.20
2022-08-17T15:07:44.511Z,19.95
2022-08-17T15:10:23.411Z,20.00
2022-08-17T15:12:52.150Z,19.83
2022-08-17T15:15:24.662Z,19.98
2022-08-17T15:17:51.582Z,19.48
2022-08-17T15:20:27.738Z,19.58
2022-08-17T15:22:56.105Z,18.13
2022-08-17T15:25:24.947Z,19.00
2022-08-17T15:27:58.705Z,17.23
2022-08-17T15:30:27.143Z,18.10
2022-08-17T15:33:00.762Z,17.75
2022-08-17T15:35:30.411Z,16.75
2022-08-17T15:38:11.799Z,17.10
2022-08-17T15:40:43.373Z,17.15
2022-08-17T15:43:26.450Z,16.52
2022-08-17T15:46:18.666Z,16.42
2022-08-17T15:48:58.671Z,15.52
2022-08-17T15:51:41.219Z,16.80
2022-08-17T15:54:18.912Z,15.40
2022-08-17T15:56:56.680Z,15.48
2022-08-17T15:59:23.093Z,13.93
2022-08-17T16:03:14.688Z,13.45
2022-08-17T16:04:44.142Z,13.67
2022-08-17T16:07:21.872Z,13.40
2022-08-17T16:09:58.694Z,13.30
2022-08-17T16:12:32.673Z,12.75
2022-08-17T16:14:59.256Z,12.63
2022-08-17T16:17:38.898Z,12.60
2022-08-17T16:20:20.440Z,13.27
2022-08-17T16:22:49.225Z,12.70
2022-08-17T16:25:52.212Z,14.10
2022-08-17T16:28:22.735Z,14.75
2022-08-17T16:31:08.878Z,15.60
2022-08-17T16:33:37.598Z,14.63
2022-08-17T16:36:10.675Z,15.15
2022-08-17T16:38:38.640Z,14.80
2022-08-17T16:41:12.660Z,15.63
2022-08-17T16:43:45.711Z,15.27
2022-08-17T16:46:45.887Z,16.65
2022-08-17T16:49:35.749Z,16.08
2022-08-17T16:52:14.669Z,16.60
2022-08-17T16:55:01.348Z,16.65
2022-08-17T16:57:34.696Z,18.37
2022-08-17T17:00:12.659Z,17.67
2022-08-17T17:02:57.867Z,19.08
2022-08-17T17:05:55.222Z,18.98
2022-08-17T17:08:50.823Z,18.60
2022-08-17T17:11:34.047Z,19.20
2022-08-17T17:14:10.675Z,18.00
2022-08-17T17:17:10.582Z,17.37
2022-08-17T17:19:45.948Z,18.63
2022-08-17T17:22:24.601Z,16.77
2022-08-17T17:25:21.679Z,17.70
2022-08-17T17:28:12.664Z,18.58
2022-08-17T17:31:03.260Z,16.47
2022-08-17T17:33:52.575Z,17.10
2022-08-17T17:36:32.590Z,18.23
2022-08-17T17:39:12.578Z,17.92
2022-08-17T17:41:51.444Z,19.13
2022-08-17T17:44:30.657Z,20.10
2022-08-17T17:47:00.091Z,19.15
2022-08-17T17:49:30.300Z,19.60
2022-08-17T17:52:18.897Z,19.25
2022-08-17T17:55:02.593Z,20.50
2022-08-17T17:58:02.576Z,19.47
2022-08-17T18:00:53.355Z,18.42
2022-08-17T18:03:50.583Z,19.98
2022-08-17T18:06:45.434Z,19.65
2022-08-17T18:09:38.578Z,20.00
2022-08-17T18:12:39.002Z,19.47
2022-08-17T18:15:21.465Z,21.92
2022-08-17T18:18:31.081Z,21.98
2022-08-17T18:21:14.568Z,21.05
2022-08-17T18:24:01.835Z,20.08
2022-08-17T18:26:56.578Z,20.50
2022-08-17T18:29:38.777Z,21.77
2022-08-17T18:32:19.350Z,21.00
2022-08-17T18:34:55.582Z,22.05
2022-08-17T18:37:39.568Z,20.77
2022-08-17T18:40:26.590Z,22.10
2022-08-17T18:43:05.152Z,21.42
2022-08-17T18:45:56.583Z,21.35
2022-08-17T18:48:29.794Z,21.25
2022-08-17T18:51:40.733Z,21.20
2022-08-17T18:54:23.957Z,21.57
2022-08-17T18:57:05.556Z,21.33
2022-08-17T18:59:42.305Z,22.48
2022-08-17T19:02:34.634Z,20.95
2022-08-17T19:05:26.259Z,22.75
2022-08-17T19:07:59.634Z,23.57
2022-08-17T19:10:46.365Z,22.25
2022-08-17T19:13:36.669Z,21.77
2022-08-17T19:16:18.718Z,21.38
2022-08-17T19:19:20.672Z,22.38
2022-08-17T19:22:13.612Z,20.93
2022-08-17T19:25:02.579Z,21.45
2022-08-17T19:27:46.510Z,21.10
2022-08-17T19:30:24.661Z,20.60
2022-08-17T19:32:51.428Z,21.98
2022-08-17T19:35:20.161Z,19.83
2022-08-17T19:37:59.601Z,21.67
2022-08-17T19:43:40.639Z,20.83
2022-08-17T19:46:35.561Z,21.23
2022-08-17T19:49:22.381Z,20.80
2022-08-17T19:52:26.596Z,19.92
2022-08-17T19:55:08.725Z,19.58
2022-08-17T19:57:45.528Z,19.80
2022-08-17T20:00:22.567Z,20.35
2022-08-17T20:03:06.074Z,20.07
2022-08-17T20:06:10.876Z,18.30
2022-08-17T20:08:39.193Z,18.58
2022-08-17T20:11:26.575Z,17.88
2022-08-17T20:14:03.603Z,18.10
2022-08-17T20:16:46.552Z,16.80
2022-08-17T20:19:29.281Z,17.20
2022-08-17T20:22:10.553Z,17.42
2022-08-17T20:24:54.618Z,17.60
2022-08-17T20:27:31.589Z,18.67
2022-08-17T20:30:12.129Z,17.37
2022-08-17T20:33:02.568Z,17.52
2022-08-17T20:35:37.254Z,16.52
2022-08-17T20:38:48.775Z,17.27
2022-08-17T20:41:20.910Z,17.75
2022-08-17T20:43:58.576Z,16.97
2022-08-17T20:46:40.330Z,17.67
2022-08-17T20:49:29.541Z,18.48
2022-08-17T20:52:13.923Z,17.17
2022-08-17T20:54:54.574Z,16.85
2022-08-17T20:57:33.577Z,16.83
2022-08-17T21:00:24.552Z,17.10
2022-08-17T21:03:18.565Z,16.17
2022-08-17T21:05:57.327Z,15.60
2022-08-17T21:08:46.587Z,15.85
2022-08-17T21:12:03.104Z,15.73
2022-08-17T21:14:29.359Z,15.63
2022-08-17T21:17:22.363Z,17.10
2022-08-17T21:20:32.508Z,15.63
2022-08-17T21:23:32.197Z,15.60
2022-08-17T21:26:35.752Z,14.10
2022-08-17T21:29:31.608Z,15.38
2022-08-17T21:32:06.759Z,15.25
2022-08-17T21:34:44.211Z,14.85
2022-08-17T21:37:26.602Z,14.65
2022-08-17T21:40:01.677Z,13.67
2022-08-17T21:42:42.757Z,13.70
2022-08-17T21:45:19.627Z,12.90
2022-08-17T21:48:12.764Z,12.63
2022-08-17T21:50:41.752Z,12.57
2022-08-17T21:53:20.555Z,10.73
2022-08-17T21:55:50.368Z,10.45
2022-08-17T21:58:40.759Z,10.45
2022-08-17T22:01:28.637Z,10.52
2022-08-17T22:04:26.585Z,10.73
2022-08-17T22:06:57.114Z,9.33
2022-08-17T22:09:42.808Z,10.95
2022-08-17T22:12:13.595Z,10.55
2022-08-17T22:14:52.506Z,10.50
2022-08-17T22:17:29.794Z,10.27
2022-08-17T22:20:22.552Z,10.10
2022-08-17T22:23:07.419Z,10.20
2022-08-17T22:25:43.551Z,9.80
2022-08-17T22:28:12.223Z,9.55
2022-08-17T22:30:40.170Z,9.55
2022-08-17T22:33:50.761Z,9.93
2022-08-17T22:36:33.804Z,9.63
2022-08-17T22:39:10.725Z,9.60
2022-08-17T22:41:42.157Z,8.68
2022-08-17T22:44:36.738Z,9.68
2022-08-17T22:47:16.441Z,8.87
2022-08-17T22:50:06.581Z,9.00
2022-08-17T22:53:03.749Z,8.45
2022-08-17T22:55:50.910Z,9.05
2022-08-17T22:58:59.141Z,9.13
2022-08-17T23:25:09.724Z,8.88
2022-08-17T23:27:36.828Z,9.20
2022-08-17T23:30:10.769Z,8.90
2022-08-17T23:32:47.413Z,9.57
2022-08-17T23:35:40.097Z,9.83
2022-08-17T23:38:12.973Z,9.45
2022-08-17T23:40:46.609Z,9.52
2022-08-17T23:43:23.937Z,9.90
2022-08-17T23:45:58.554Z,10.63
2022-08-17T23:48:36.031Z,9.20
2022-08-17T23:51:26.735Z,9.73
2022-08-17T23:53:58.268Z,9.40
2022-08-17T23:56:26.058Z,8.63
2022-08-17T23:59:04.653Z,10.10
